sensor_id;sensor_type;location;lat;lon;timestamp;P1;durP1;ratioP1;P2;durP2;ratioP2
4389;SDS011;2209;48.982;8.406;2023-04-30T00:00:58;2.33;;;2.00;;
4389;SDS011;2209;48.982;8.406;2023-04-30T00:03:20;3.50;;;2.60;;
4389;SDS011;2209;48.982;8.406;2023-04-30T00:05:43;2.63;;;2.20;;
4389;SDS011;2209;48.982;8.406;2023-04-30T00:08:05;2.77;;;2.57;;
4389;SDS011;2209;48.982;8.406;2023-04-30T00:10:29;2.80;;;2.30;;
4389;SDS011;2209;48.982;8.406;2023-04-30T00:12:51;3.10;;;2.57;;
4389;SDS011;2209;48.982;8.406;2023-04-30T00:15:13;2.67;;;2.10;;
4389;SDS011;2209;48.982;8.406;2023-04-30T00:17:35;4.40;;;3.30;;
4389;SDS011;2209;48.982;8.406;2023-04-30T00:19:57;6.63;;;2.37;;
4389;SDS011;2209;48.982;8.406;2023-04-30T00:22:19;4.03;;;3.40;;
4389;SDS011;2209;48.982;8.406;2023-04-30T00:24:41;3.70;;;3.30;;
4389;SDS011;2209;48.982;8.406;2023-04-30T00:27:04;3.87;;;2.53;;
4389;SDS011;2209;48.982;8.406;2023-04-30T00:29:27;2.80;;;2.50;;
4389;SDS011;2209;48.982;8.406;2023-04-30T00:31:49;3.00;;;2.40;;
4389;SDS011;2209;48.982;8.406;2023-04-30T00:34:11;3.83;;;2.93;;
4389;SDS011;2209;48.982;8.406;2023-04-30T00:36:33;2.73;;;2.53;;
4389;SDS011;2209;48.982;8.406;2023-04-30T00:38:55;3.10;;;2.43;;
4389;SDS011;2209;48.982;8.406;2023-04-30T00:41:17;3.10;;;2.80;;
4389;SDS011;2209;48.982;8.406;2023-04-30T00:43:41;4.40;;;2.63;;
4389;SDS011;2209;48.982;8.406;2023-04-30T00:46:03;3.43;;;2.77;;
4389;SDS011;2209;48.982;8.406;2023-04-30T00:48:26;3.47;;;2.80;;
4389;SDS011;2209;48.982;8.406;2023-04-30T00:50:48;3.23;;;2.40;;
4389;SDS011;2209;48.982;8.406;2023-04-30T00:53:10;3.00;;;2.70;;
4389;SDS011;2209;48.982;8.406;2023-04-30T00:55:32;2.87;;;2.67;;
4389;SDS011;2209;48.982;8.406;2023-04-30T00:57:54;3.00;;;2.73;;
4389;SDS011;2209;48.982;8.406;2023-04-30T01:00:18;3.67;;;2.87;;
4389;SDS011;2209;48.982;8.406;2023-04-30T01:02:40;3.90;;;3.20;;
4389;SDS011;2209;48.982;8.406;2023-04-30T01:05:02;9.40;;;3.43;;
4389;SDS011;2209;48.982;8.406;2023-04-30T01:07:25;3.70;;;3.40;;
4389;SDS011;2209;48.982;8.406;2023-04-30T01:09:48;3.03;;;2.50;;
4389;SDS011;2209;48.982;8.406;2023-04-30T01:12:12;3.90;;;3.00;;
4389;SDS011;2209;48.982;8.406;2023-04-30T01:14:44;3.30;;;3.00;;
4389;SDS011;2209;48.982;8.406;2023-04-30T01:17:20;4.40;;;3.30;;
4389;SDS011;2209;48.982;8.406;2023-04-30T01:19:48;3.70;;;2.70;;
4389;SDS011;2209;48.982;8.406;2023-04-30T01:22:12;3.13;;;2.93;;
4389;SDS011;2209;48.982;8.406;2023-04-30T01:24:52;4.90;;;3.07;;
4389;SDS011;2209;48.982;8.406;2023-04-30T01:27:30;3.20;;;2.37;;
4389;SDS011;2209;48.982;8.406;2023-04-30T01:30:02;4.23;;;3.60;;
4389;SDS011;2209;48.982;8.406;2023-04-30T01:32:26;15.90;;;2.90;;
4389;SDS011;2209;48.982;8.406;2023-04-30T01:34:48;4.37;;;3.00;;
4389;SDS011;2209;48.982;8.406;2023-04-30T01:37:12;3.93;;;3.37;;
4389;SDS011;2209;48.982;8.406;2023-04-30T01:39:55;3.20;;;2.90;;
4389;SDS011;2209;48.982;8.406;2023-04-30T01:42:21;2.60;;;2.40;;
4389;SDS011;2209;48.982;8.406;2023-04-30T01:44:53;3.20;;;2.90;;
4389;SDS011;2209;48.982;8.406;2023-04-30T01:47:35;3.13;;;2.93;;
4389;SDS011;2209;48.982;8.406;2023-04-30T01:50:04;2.90;;;2.63;;
4389;SDS011;2209;48.982;8.406;2023-04-30T01:52:36;3.03;;;2.67;;
4389;SDS011;2209;48.982;8.406;2023-04-30T01:55:05;3.20;;;2.93;;
4389;SDS011;2209;48.982;8.406;2023-04-30T01:57:33;2.90;;;2.50;;
4389;SDS011;2209;48.982;8.406;2023-04-30T01:59:58;5.90;;;3.27;;
4389;SDS011;2209;48.982;8.406;2023-04-30T02:02:22;4.40;;;2.60;;
4389;SDS011;2209;48.982;8.406;2023-04-30T02:04:44;3.00;;;2.70;;
4389;SDS011;2209;48.982;8.406;2023-04-30T02:07:06;4.63;;;3.43;;
4389;SDS011;2209;48.982;8.406;2023-04-30T02:09:28;3.70;;;3.37;;
4389;SDS011;2209;48.982;8.406;2023-04-30T02:11:50;7.30;;;2.90;;
4389;SDS011;2209;48.982;8.406;2023-04-30T02:14:12;3.47;;;3.17;;
4389;SDS011;2209;48.982;8.406;2023-04-30T02:16:34;3.73;;;3.10;;
4389;SDS011;2209;48.982;8.406;2023-04-30T02:18:58;12.83;;;3.20;;
4389;SDS011;2209;48.982;8.406;2023-04-30T02:21:20;2.50;;;2.30;;
4389;SDS011;2209;48.982;8.406;2023-04-30T02:23:42;4.77;;;2.67;;
4389;SDS011;2209;48.982;8.406;2023-04-30T02:26:04;3.60;;;3.40;;
4389;SDS011;2209;48.982;8.406;2023-04-30T02:28:26;3.13;;;2.70;;
4389;SDS011;2209;48.982;8.406;2023-04-30T02:30:48;2.90;;;2.70;;
4389;SDS011;2209;48.982;8.406;2023-04-30T02:33:10;3.30;;;2.80;;
4389;SDS011;2209;48.982;8.406;2023-04-30T02:35:33;3.17;;;2.87;;
4389;SDS011;2209;48.982;8.406;2023-04-30T02:37:55;4.00;;;3.27;;
4389;SDS011;2209;48.982;8.406;2023-04-30T02:40:18;3.37;;;2.77;;
4389;SDS011;2209;48.982;8.406;2023-04-30T02:42:39;4.77;;;3.33;;
4389;SDS011;2209;48.982;8.406;2023-04-30T02:45:02;4.20;;;3.53;;
4389;SDS011;2209;48.982;8.406;2023-04-30T02:47:24;6.77;;;2.97;;
4389;SDS011;2209;48.982;8.406;2023-04-30T02:49:46;3.10;;;2.43;;
4389;SDS011;2209;48.982;8.406;2023-04-30T02:52:09;3.13;;;2.90;;
4389;SDS011;2209;48.982;8.406;2023-04-30T02:54:31;4.20;;;3.40;;
4389;SDS011;2209;48.982;8.406;2023-04-30T02:56:53;2.77;;;2.13;;
4389;SDS011;2209;48.982;8.406;2023-04-30T02:59:16;4.43;;;3.63;;
4389;SDS011;2209;48.982;8.406;2023-04-30T03:01:38;2.67;;;2.43;;
4389;SDS011;2209;48.982;8.406;2023-04-30T03:04:00;4.40;;;3.37;;
4389;SDS011;2209;48.982;8.406;2023-04-30T03:06:23;8.60;;;2.53;;
4389;SDS011;2209;48.982;8.406;2023-04-30T03:08:46;4.13;;;3.23;;
4389;SDS011;2209;48.982;8.406;2023-04-30T03:11:08;4.50;;;3.03;;
4389;SDS011;2209;48.982;8.406;2023-04-30T03:13:30;2.77;;;2.57;;
4389;SDS011;2209;48.982;8.406;2023-04-30T03:15:55;6.60;;;5.00;;
4389;SDS011;2209;48.982;8.406;2023-04-30T03:18:18;3.30;;;2.77;;
4389;SDS011;2209;48.982;8.406;2023-04-30T03:20:40;3.93;;;3.40;;
4389;SDS011;2209;48.982;8.406;2023-04-30T03:23:02;4.30;;;3.10;;
4389;SDS011;2209;48.982;8.406;2023-04-30T03:25:26;4.50;;;3.63;;
4389;SDS011;2209;48.982;8.406;2023-04-30T03:27:48;4.13;;;3.47;;
4389;SDS011;2209;48.982;8.406;2023-04-30T03:30:10;2.93;;;2.73;;
4389;SDS011;2209;48.982;8.406;2023-04-30T03:32:32;3.17;;;2.97;;
4389;SDS011;2209;48.982;8.406;2023-04-30T03:34:54;9.50;;;3.40;;
4389;SDS011;2209;48.982;8.406;2023-04-30T03:37:16;3.97;;;3.57;;
4389;SDS011;2209;48.982;8.406;2023-04-30T03:39:38;4.80;;;3.10;;
4389;SDS011;2209;48.982;8.406;2023-04-30T03:42:02;3.93;;;3.57;;
4389;SDS011;2209;48.982;8.406;2023-04-30T03:44:24;6.40;;;4.27;;
4389;SDS011;2209;48.982;8.406;2023-04-30T03:46:46;4.77;;;4.10;;
4389;SDS011;2209;48.982;8.406;2023-04-30T03:49:08;4.23;;;3.60;;
4389;SDS011;2209;48.982;8.406;2023-04-30T03:51:30;4.30;;;3.73;;
4389;SDS011;2209;48.982;8.406;2023-04-30T03:53:52;4.97;;;3.33;;
4389;SDS011;2209;48.982;8.406;2023-04-30T03:56:14;4.73;;;3.83;;
4389;SDS011;2209;48.982;8.406;2023-04-30T03:58:37;4.47;;;3.37;;
4389;SDS011;2209;48.982;8.406;2023-04-30T04:01:00;3.43;;;3.03;;
4389;SDS011;2209;48.982;8.406;2023-04-30T04:03:22;4.00;;;3.60;;
4389;SDS011;2209;48.982;8.406;2023-04-30T04:05:44;3.97;;;3.50;;
4389;SDS011;2209;48.982;8.406;2023-04-30T04:08:06;4.80;;;3.33;;
4389;SDS011;2209;48.982;8.406;2023-04-30T04:10:28;4.30;;;3.90;;
4389;SDS011;2209;48.982;8.406;2023-04-30T04:12:50;11.30;;;5.20;;
4389;SDS011;2209;48.982;8.406;2023-04-30T04:15:14;6.00;;;4.10;;
4389;SDS011;2209;48.982;8.406;2023-04-30T04:17:36;4.97;;;3.57;;
4389;SDS011;2209;48.982;8.406;2023-04-30T04:19:58;4.43;;;3.90;;
4389;SDS011;2209;48.982;8.406;2023-04-30T04:22:20;13.03;;;4.97;;
4389;SDS011;2209;48.982;8.406;2023-04-30T04:24:42;4.13;;;3.50;;
4389;SDS011;2209;48.982;8.406;2023-04-30T04:27:04;3.70;;;3.40;;
4389;SDS011;2209;48.982;8.406;2023-04-30T04:29:26;5.60;;;4.00;;
4389;SDS011;2209;48.982;8.406;2023-04-30T04:31:50;4.87;;;3.67;;
4389;SDS011;2209;48.982;8.406;2023-04-30T04:34:12;4.83;;;4.30;;
4389;SDS011;2209;48.982;8.406;2023-04-30T04:36:34;3.83;;;3.43;;
4389;SDS011;2209;48.982;8.406;2023-04-30T04:38:56;10.80;;;4.03;;
4389;SDS011;2209;48.982;8.406;2023-04-30T04:41:21;6.80;;;4.27;;
4389;SDS011;2209;48.982;8.406;2023-04-30T04:43:43;7.97;;;4.87;;
4389;SDS011;2209;48.982;8.406;2023-04-30T04:46:05;3.43;;;3.17;;
4389;SDS011;2209;48.982;8.406;2023-04-30T04:48:29;7.23;;;4.10;;
4389;SDS011;2209;48.982;8.406;2023-04-30T04:50:51;5.20;;;3.57;;
4389;SDS011;2209;48.982;8.406;2023-04-30T04:53:14;3.83;;;3.50;;
4389;SDS011;2209;48.982;8.406;2023-04-30T04:55:36;4.43;;;4.03;;
4389;SDS011;2209;48.982;8.406;2023-04-30T04:57:58;6.00;;;4.40;;
4389;SDS011;2209;48.982;8.406;2023-04-30T05:00:20;6.20;;;4.23;;
4389;SDS011;2209;48.982;8.406;2023-04-30T05:02:42;6.00;;;4.47;;
4389;SDS011;2209;48.982;8.406;2023-04-30T05:05:06;7.50;;;4.37;;
4389;SDS011;2209;48.982;8.406;2023-04-30T05:07:28;3.73;;;3.20;;
4389;SDS011;2209;48.982;8.406;2023-04-30T05:09:51;5.90;;;4.17;;
4389;SDS011;2209;48.982;8.406;2023-04-30T05:12:13;5.13;;;4.30;;
4389;SDS011;2209;48.982;8.406;2023-04-30T05:14:35;6.80;;;4.10;;
4389;SDS011;2209;48.982;8.406;2023-04-30T05:16:57;8.37;;;5.13;;
4389;SDS011;2209;48.982;8.406;2023-04-30T05:19:19;6.30;;;4.90;;
4389;SDS011;2209;48.982;8.406;2023-04-30T05:21:42;6.13;;;5.53;;
4389;SDS011;2209;48.982;8.406;2023-04-30T05:24:05;7.33;;;5.10;;
4389;SDS011;2209;48.982;8.406;2023-04-30T05:26:27;4.40;;;4.00;;
4389;SDS011;2209;48.982;8.406;2023-04-30T05:28:49;10.40;;;5.80;;
4389;SDS011;2209;48.982;8.406;2023-04-30T05:31:11;4.97;;;4.47;;
4389;SDS011;2209;48.982;8.406;2023-04-30T05:33:33;10.60;;;6.17;;
4389;SDS011;2209;48.982;8.406;2023-04-30T05:35:56;6.37;;;5.33;;
4389;SDS011;2209;48.982;8.406;2023-04-30T05:38:19;8.10;;;5.03;;
4389;SDS011;2209;48.982;8.406;2023-04-30T05:40:41;6.50;;;4.00;;
4389;SDS011;2209;48.982;8.406;2023-04-30T05:43:04;8.00;;;4.30;;
4389;SDS011;2209;48.982;8.406;2023-04-30T05:45:26;8.20;;;5.30;;
4389;SDS011;2209;48.982;8.406;2023-04-30T05:47:48;4.30;;;3.90;;
4389;SDS011;2209;48.982;8.406;2023-04-30T05:50:10;5.60;;;5.03;;
4389;SDS011;2209;48.982;8.406;2023-04-30T05:52:32;4.23;;;3.83;;
4389;SDS011;2209;48.982;8.406;2023-04-30T05:54:55;5.70;;;4.40;;
4389;SDS011;2209;48.982;8.406;2023-04-30T05:57:17;5.50;;;3.10;;
4389;SDS011;2209;48.982;8.406;2023-04-30T05:59:40;5.37;;;3.90;;
4389;SDS011;2209;48.982;8.406;2023-04-30T06:02:02;5.77;;;4.50;;
4389;SDS011;2209;48.982;8.406;2023-04-30T06:04:24;11.03;;;5.20;;
4389;SDS011;2209;48.982;8.406;2023-04-30T06:06:46;6.00;;;4.80;;
4389;SDS011;2209;48.982;8.406;2023-04-30T06:09:08;6.40;;;4.90;;
4389;SDS011;2209;48.982;8.406;2023-04-30T06:11:32;6.20;;;4.03;;
4389;SDS011;2209;48.982;8.406;2023-04-30T06:13:54;5.30;;;4.60;;
4389;SDS011;2209;48.982;8.406;2023-04-30T06:16:16;6.47;;;4.10;;
4389;SDS011;2209;48.982;8.406;2023-04-30T06:18:39;5.70;;;4.27;;
4389;SDS011;2209;48.982;8.406;2023-04-30T06:21:01;9.27;;;5.37;;
4389;SDS011;2209;48.982;8.406;2023-04-30T06:23:23;6.47;;;5.03;;
4389;SDS011;2209;48.982;8.406;2023-04-30T06:25:45;5.43;;;4.87;;
4389;SDS011;2209;48.982;8.406;2023-04-30T06:28:08;6.87;;;5.33;;
4389;SDS011;2209;48.982;8.406;2023-04-30T06:30:30;7.93;;;5.27;;
4389;SDS011;2209;48.982;8.406;2023-04-30T06:32:52;9.53;;;5.80;;
4389;SDS011;2209;48.982;8.406;2023-04-30T06:35:14;7.00;;;4.57;;
4389;SDS011;2209;48.982;8.406;2023-04-30T06:37:36;8.13;;;4.97;;
4389;SDS011;2209;48.982;8.406;2023-04-30T06:39:58;5.73;;;4.70;;
4389;SDS011;2209;48.982;8.406;2023-04-30T06:42:20;5.63;;;4.43;;
4389;SDS011;2209;48.982;8.406;2023-04-30T06:44:44;4.93;;;4.53;;
4389;SDS011;2209;48.982;8.406;2023-04-30T06:47:06;5.53;;;5.03;;
4389;SDS011;2209;48.982;8.406;2023-04-30T06:49:28;8.20;;;5.03;;
4389;SDS011;2209;48.982;8.406;2023-04-30T06:51:50;6.17;;;5.00;;
4389;SDS011;2209;48.982;8.406;2023-04-30T06:54:13;5.70;;;5.20;;
4389;SDS011;2209;48.982;8.406;2023-04-30T06:56:35;7.90;;;5.90;;
4389;SDS011;2209;48.982;8.406;2023-04-30T06:58:57;6.20;;;5.57;;
4389;SDS011;2209;48.982;8.406;2023-04-30T07:01:21;5.87;;;5.13;;
4389;SDS011;2209;48.982;8.406;2023-04-30T07:03:43;6.37;;;5.73;;
4389;SDS011;2209;48.982;8.406;2023-04-30T07:06:05;5.47;;;4.30;;
4389;SDS011;2209;48.982;8.406;2023-04-30T07:08:27;11.30;;;5.37;;
4389;SDS011;2209;48.982;8.406;2023-04-30T07:10:49;9.93;;;6.93;;
4389;SDS011;2209;48.982;8.406;2023-04-30T07:13:11;7.77;;;6.97;;
4389;SDS011;2209;48.982;8.406;2023-04-30T07:15:33;5.70;;;4.10;;
4389;SDS011;2209;48.982;8.406;2023-04-30T07:17:57;8.53;;;6.03;;
4389;SDS011;2209;48.982;8.406;2023-04-30T07:20:19;7.13;;;5.67;;
4389;SDS011;2209;48.982;8.406;2023-04-30T07:22:42;5.17;;;4.67;;
4389;SDS011;2209;48.982;8.406;2023-04-30T07:25:05;6.20;;;5.27;;
4389;SDS011;2209;48.982;8.406;2023-04-30T07:27:28;6.00;;;4.53;;
4389;SDS011;2209;48.982;8.406;2023-04-30T07:29:50;8.23;;;4.57;;
4389;SDS011;2209;48.982;8.406;2023-04-30T07:32:12;6.23;;;4.60;;
4389;SDS011;2209;48.982;8.406;2023-04-30T07:34:37;5.87;;;5.30;;
4389;SDS011;2209;48.982;8.406;2023-04-30T07:36:59;7.07;;;4.73;;
4389;SDS011;2209;48.982;8.406;2023-04-30T07:39:22;4.70;;;3.83;;
4389;SDS011;2209;48.982;8.406;2023-04-30T07:41:44;6.53;;;4.83;;
4389;SDS011;2209;48.982;8.406;2023-04-30T07:44:06;8.07;;;5.40;;
4389;SDS011;2209;48.982;8.406;2023-04-30T07:46:28;9.70;;;6.57;;
4389;SDS011;2209;48.982;8.406;2023-04-30T07:48:50;8.33;;;5.80;;
4389;SDS011;2209;48.982;8.406;2023-04-30T07:51:13;5.00;;;4.10;;
4389;SDS011;2209;48.982;8.406;2023-04-30T07:53:35;6.87;;;6.10;;
4389;SDS011;2209;48.982;8.406;2023-04-30T07:55:58;7.10;;;5.70;;
4389;SDS011;2209;48.982;8.406;2023-04-30T07:58:20;5.93;;;4.80;;
4389;SDS011;2209;48.982;8.406;2023-04-30T08:00:42;10.17;;;5.60;;
4389;SDS011;2209;48.982;8.406;2023-04-30T08:03:04;6.90;;;5.70;;
4389;SDS011;2209;48.982;8.406;2023-04-30T08:05:26;6.03;;;5.53;;
4389;SDS011;2209;48.982;8.406;2023-04-30T08:07:49;5.40;;;4.37;;
4389;SDS011;2209;48.982;8.406;2023-04-30T08:10:11;9.60;;;5.80;;
4389;SDS011;2209;48.982;8.406;2023-04-30T08:12:34;5.57;;;5.03;;
4389;SDS011;2209;48.982;8.406;2023-04-30T08:15:00;7.70;;;5.13;;
4389;SDS011;2209;48.982;8.406;2023-04-30T08:17:24;6.87;;;5.20;;
4389;SDS011;2209;48.982;8.406;2023-04-30T08:19:46;6.93;;;4.03;;
4389;SDS011;2209;48.982;8.406;2023-04-30T08:22:08;7.47;;;4.77;;
4389;SDS011;2209;48.982;8.406;2023-04-30T08:24:31;6.70;;;4.93;;
4389;SDS011;2209;48.982;8.406;2023-04-30T08:26:53;6.70;;;5.87;;
4389;SDS011;2209;48.982;8.406;2023-04-30T08:29:15;5.83;;;5.20;;
4389;SDS011;2209;48.982;8.406;2023-04-30T08:31:37;6.70;;;5.20;;
4389;SDS011;2209;48.982;8.406;2023-04-30T08:33:59;4.97;;;4.43;;
4389;SDS011;2209;48.982;8.406;2023-04-30T08:36:21;7.60;;;5.83;;
4389;SDS011;2209;48.982;8.406;2023-04-30T08:38:43;6.00;;;4.77;;
4389;SDS011;2209;48.982;8.406;2023-04-30T08:41:08;6.87;;;4.73;;
4389;SDS011;2209;48.982;8.406;2023-04-30T08:43:33;4.57;;;3.90;;
4389;SDS011;2209;48.982;8.406;2023-04-30T08:45:55;5.97;;;4.20;;
4389;SDS011;2209;48.982;8.406;2023-04-30T08:48:18;5.07;;;3.90;;
4389;SDS011;2209;48.982;8.406;2023-04-30T08:50:41;6.60;;;5.13;;
4389;SDS011;2209;48.982;8.406;2023-04-30T08:53:03;4.80;;;4.30;;
4389;SDS011;2209;48.982;8.406;2023-04-30T08:55:26;4.57;;;3.70;;
4389;SDS011;2209;48.982;8.406;2023-04-30T08:57:50;5.70;;;4.20;;
4389;SDS011;2209;48.982;8.406;2023-04-30T09:00:12;4.13;;;3.53;;
4389;SDS011;2209;48.982;8.406;2023-04-30T09:02:37;4.00;;;3.63;;
4389;SDS011;2209;48.982;8.406;2023-04-30T09:05:01;4.77;;;4.10;;
4389;SDS011;2209;48.982;8.406;2023-04-30T09:07:23;6.23;;;3.90;;
4389;SDS011;2209;48.982;8.406;2023-04-30T09:09:48;6.30;;;4.20;;
4389;SDS011;2209;48.982;8.406;2023-04-30T09:12:14;4.17;;;3.77;;
4389;SDS011;2209;48.982;8.406;2023-04-30T09:14:40;10.10;;;4.70;;
4389;SDS011;2209;48.982;8.406;2023-04-30T09:17:02;4.47;;;4.10;;
4389;SDS011;2209;48.982;8.406;2023-04-30T09:19:24;3.30;;;3.00;;
4389;SDS011;2209;48.982;8.406;2023-04-30T09:21:47;4.77;;;3.40;;
4389;SDS011;2209;48.982;8.406;2023-04-30T09:24:09;5.00;;;3.93;;
4389;SDS011;2209;48.982;8.406;2023-04-30T09:26:32;4.40;;;4.00;;
4389;SDS011;2209;48.982;8.406;2023-04-30T09:28:55;7.23;;;4.90;;
4389;SDS011;2209;48.982;8.406;2023-04-30T09:31:20;5.23;;;4.57;;
4389;SDS011;2209;48.982;8.406;2023-04-30T09:33:45;8.07;;;4.37;;
4389;SDS011;2209;48.982;8.406;2023-04-30T09:36:07;6.10;;;4.47;;
4389;SDS011;2209;48.982;8.406;2023-04-30T09:38:31;7.00;;;3.37;;
4389;SDS011;2209;48.982;8.406;2023-04-30T09:40:53;4.40;;;3.60;;
4389;SDS011;2209;48.982;8.406;2023-04-30T09:43:15;10.20;;;4.10;;
4389;SDS011;2209;48.982;8.406;2023-04-30T09:45:38;9.13;;;4.70;;
4389;SDS011;2209;48.982;8.406;2023-04-30T09:48:02;7.80;;;3.23;;
4389;SDS011;2209;48.982;8.406;2023-04-30T09:50:25;3.63;;;3.20;;
4389;SDS011;2209;48.982;8.406;2023-04-30T09:52:49;4.23;;;3.50;;
4389;SDS011;2209;48.982;8.406;2023-04-30T09:55:13;6.10;;;3.50;;
4389;SDS011;2209;48.982;8.406;2023-04-30T09:57:35;3.27;;;2.97;;
4389;SDS011;2209;48.982;8.406;2023-04-30T09:59:58;4.17;;;3.37;;
4389;SDS011;2209;48.982;8.406;2023-04-30T10:02:21;3.67;;;3.30;;
4389;SDS011;2209;48.982;8.406;2023-04-30T10:04:46;4.40;;;4.00;;
4389;SDS011;2209;48.982;8.406;2023-04-30T10:07:14;3.93;;;3.60;;
4389;SDS011;2209;48.982;8.406;2023-04-30T10:09:38;5.33;;;3.10;;
4389;SDS011;2209;48.982;8.406;2023-04-30T10:12:02;5.10;;;3.53;;
4389;SDS011;2209;48.982;8.406;2023-04-30T10:14:28;4.87;;;4.03;;
4389;SDS011;2209;48.982;8.406;2023-04-30T10:16:54;3.37;;;3.07;;
4389;SDS011;2209;48.982;8.406;2023-04-30T10:19:22;8.30;;;3.87;;
4389;SDS011;2209;48.982;8.406;2023-04-30T10:21:46;4.17;;;2.73;;
4389;SDS011;2209;48.982;8.406;2023-04-30T10:24:12;3.93;;;3.63;;
4389;SDS011;2209;48.982;8.406;2023-04-30T10:26:35;5.17;;;3.13;;
4389;SDS011;2209;48.982;8.406;2023-04-30T10:28:57;2.57;;;2.37;;
4389;SDS011;2209;48.982;8.406;2023-04-30T10:31:21;5.13;;;2.53;;
4389;SDS011;2209;48.982;8.406;2023-04-30T10:33:46;3.43;;;3.13;;
4389;SDS011;2209;48.982;8.406;2023-04-30T10:36:17;2.47;;;2.27;;
4389;SDS011;2209;48.982;8.406;2023-04-30T10:38:46;3.27;;;2.97;;
4389;SDS011;2209;48.982;8.406;2023-04-30T10:41:08;4.37;;;3.97;;
4389;SDS011;2209;48.982;8.406;2023-04-30T10:43:30;5.70;;;3.00;;
4389;SDS011;2209;48.982;8.406;2023-04-30T10:45:55;2.70;;;2.50;;
4389;SDS011;2209;48.982;8.406;2023-04-30T10:48:18;2.50;;;2.30;;
4389;SDS011;2209;48.982;8.406;2023-04-30T10:50:45;3.30;;;2.30;;
4389;SDS011;2209;48.982;8.406;2023-04-30T10:53:08;3.87;;;3.27;;
4389;SDS011;2209;48.982;8.406;2023-04-30T10:55:35;4.13;;;2.83;;
4389;SDS011;2209;48.982;8.406;2023-04-30T10:58:21;3.33;;;2.30;;
4389;SDS011;2209;48.982;8.406;2023-04-30T11:00:45;2.80;;;2.60;;
4389;SDS011;2209;48.982;8.406;2023-04-30T11:03:12;3.67;;;3.40;;
4389;SDS011;2209;48.982;8.406;2023-04-30T11:05:34;3.40;;;3.07;;
4389;SDS011;2209;48.982;8.406;2023-04-30T11:08:00;6.57;;;3.30;;
4389;SDS011;2209;48.982;8.406;2023-04-30T11:10:22;4.93;;;3.13;;
4389;SDS011;2209;48.982;8.406;2023-04-30T11:12:47;2.80;;;2.60;;
4389;SDS011;2209;48.982;8.406;2023-04-30T11:15:11;2.70;;;2.50;;
4389;SDS011;2209;48.982;8.406;2023-04-30T11:17:35;2.83;;;2.60;;
4389;SDS011;2209;48.982;8.406;2023-04-30T11:20:01;4.73;;;2.40;;
4389;SDS011;2209;48.982;8.406;2023-04-30T11:22:26;2.30;;;2.13;;
4389;SDS011;2209;48.982;8.406;2023-04-30T11:25:01;2.00;;;1.90;;
4389;SDS011;2209;48.982;8.406;2023-04-30T11:27:25;2.10;;;2.00;;
4389;SDS011;2209;48.982;8.406;2023-04-30T11:29:50;7.37;;;2.67;;
4389;SDS011;2209;48.982;8.406;2023-04-30T11:32:13;3.00;;;2.10;;
4389;SDS011;2209;48.982;8.406;2023-04-30T11:34:35;3.40;;;2.57;;
4389;SDS011;2209;48.982;8.406;2023-04-30T11:36:58;3.10;;;2.40;;
4389;SDS011;2209;48.982;8.406;2023-04-30T11:39:23;2.10;;;2.00;;
4389;SDS011;2209;48.982;8.406;2023-04-30T11:41:45;2.00;;;1.80;;
4389;SDS011;2209;48.982;8.406;2023-04-30T11:44:20;4.83;;;2.37;;
4389;SDS011;2209;48.982;8.406;2023-04-30T11:46:44;3.43;;;2.83;;
4389;SDS011;2209;48.982;8.406;2023-04-30T11:49:06;2.60;;;2.40;;
4389;SDS011;2209;48.982;8.406;2023-04-30T11:51:29;2.30;;;2.10;;
4389;SDS011;2209;48.982;8.406;2023-04-30T11:53:52;2.80;;;2.43;;
4389;SDS011;2209;48.982;8.406;2023-04-30T11:56:16;2.67;;;1.93;;
4389;SDS011;2209;48.982;8.406;2023-04-30T11:58:40;4.10;;;2.30;;
4389;SDS011;2209;48.982;8.406;2023-04-30T12:01:02;3.30;;;2.67;;
4389;SDS011;2209;48.982;8.406;2023-04-30T12:03:27;3.30;;;2.30;;
4389;SDS011;2209;48.982;8.406;2023-04-30T12:05:50;3.50;;;3.10;;
4389;SDS011;2209;48.982;8.406;2023-04-30T12:08:12;2.77;;;2.50;;
4389;SDS011;2209;48.982;8.406;2023-04-30T12:10:34;3.20;;;2.90;;
4389;SDS011;2209;48.982;8.406;2023-04-30T12:12:57;3.23;;;2.93;;
4389;SDS011;2209;48.982;8.406;2023-04-30T12:15:19;2.40;;;2.20;;
4389;SDS011;2209;48.982;8.406;2023-04-30T12:17:45;2.53;;;2.20;;
4389;SDS011;2209;48.982;8.406;2023-04-30T12:20:12;2.50;;;2.30;;
4389;SDS011;2209;48.982;8.406;2023-04-30T12:22:35;1.80;;;1.70;;
4389;SDS011;2209;48.982;8.406;2023-04-30T12:24:58;2.30;;;2.00;;
4389;SDS011;2209;48.982;8.406;2023-04-30T12:27:21;5.17;;;2.50;;
4389;SDS011;2209;48.982;8.406;2023-04-30T12:29:47;3.27;;;1.90;;
4389;SDS011;2209;48.982;8.406;2023-04-30T12:32:10;2.50;;;2.30;;
4389;SDS011;2209;48.982;8.406;2023-04-30T12:34:36;3.03;;;2.83;;
4389;SDS011;2209;48.982;8.406;2023-04-30T12:37:00;3.00;;;2.30;;
4389;SDS011;2209;48.982;8.406;2023-04-30T12:39:22;2.03;;;1.93;;
4389;SDS011;2209;48.982;8.406;2023-04-30T12:41:46;2.47;;;2.23;;
4389;SDS011;2209;48.982;8.406;2023-04-30T12:44:13;2.70;;;2.50;;
4389;SDS011;2209;48.982;8.406;2023-04-30T12:46:36;2.87;;;2.53;;
4389;SDS011;2209;48.982;8.406;2023-04-30T12:49:01;3.00;;;2.77;;
4389;SDS011;2209;48.982;8.406;2023-04-30T12:51:24;2.60;;;2.40;;
4389;SDS011;2209;48.982;8.406;2023-04-30T12:53:49;4.40;;;1.83;;
4389;SDS011;2209;48.982;8.406;2023-04-30T12:56:12;3.03;;;2.40;;
4389;SDS011;2209;48.982;8.406;2023-04-30T12:58:35;2.97;;;2.77;;
4389;SDS011;2209;48.982;8.406;2023-04-30T13:00:58;3.40;;;2.60;;
4389;SDS011;2209;48.982;8.406;2023-04-30T13:03:20;2.67;;;2.47;;
4389;SDS011;2209;48.982;8.406;2023-04-30T13:05:44;4.13;;;2.50;;
4389;SDS011;2209;48.982;8.406;2023-04-30T13:08:07;6.97;;;2.80;;
4389;SDS011;2209;48.982;8.406;2023-04-30T13:10:31;2.90;;;2.70;;
4389;SDS011;2209;48.982;8.406;2023-04-30T13:12:53;2.50;;;2.30;;
4389;SDS011;2209;48.982;8.406;2023-04-30T13:15:15;4.00;;;2.77;;
4389;SDS011;2209;48.982;8.406;2023-04-30T13:17:37;2.20;;;2.00;;
4389;SDS011;2209;48.982;8.406;2023-04-30T13:19:59;2.20;;;2.10;;
4389;SDS011;2209;48.982;8.406;2023-04-30T13:22:21;2.47;;;2.27;;
4389;SDS011;2209;48.982;8.406;2023-04-30T13:24:48;3.27;;;2.97;;
4389;SDS011;2209;48.982;8.406;2023-04-30T13:27:12;2.97;;;2.57;;
4389;SDS011;2209;48.982;8.406;2023-04-30T13:29:34;2.40;;;2.30;;
4389;SDS011;2209;48.982;8.406;2023-04-30T13:31:56;3.27;;;2.57;;
4389;SDS011;2209;48.982;8.406;2023-04-30T13:34:18;4.23;;;3.93;;
4389;SDS011;2209;48.982;8.406;2023-04-30T13:36:41;2.67;;;2.47;;
4389;SDS011;2209;48.982;8.406;2023-04-30T13:39:03;3.50;;;3.20;;
4389;SDS011;2209;48.982;8.406;2023-04-30T13:41:26;2.90;;;2.70;;
4389;SDS011;2209;48.982;8.406;2023-04-30T13:43:49;2.80;;;2.60;;
4389;SDS011;2209;48.982;8.406;2023-04-30T13:46:11;3.40;;;3.10;;
4389;SDS011;2209;48.982;8.406;2023-04-30T13:48:34;2.40;;;2.30;;
4389;SDS011;2209;48.982;8.406;2023-04-30T13:50:56;3.77;;;3.47;;
4389;SDS011;2209;48.982;8.406;2023-04-30T13:53:19;3.00;;;2.80;;
4389;SDS011;2209;48.982;8.406;2023-04-30T13:55:41;2.77;;;2.57;;
4389;SDS011;2209;48.982;8.406;2023-04-30T13:58:04;2.57;;;2.40;;
4389;SDS011;2209;48.982;8.406;2023-04-30T14:00:27;3.37;;;2.73;;
4389;SDS011;2209;48.982;8.406;2023-04-30T14:02:49;2.70;;;2.50;;
4389;SDS011;2209;48.982;8.406;2023-04-30T14:05:11;3.00;;;2.80;;
4389;SDS011;2209;48.982;8.406;2023-04-30T14:07:35;2.90;;;2.70;;
4389;SDS011;2209;48.982;8.406;2023-04-30T14:09:57;2.90;;;2.73;;
4389;SDS011;2209;48.982;8.406;2023-04-30T14:12:19;3.90;;;2.20;;
4389;SDS011;2209;48.982;8.406;2023-04-30T14:14:43;2.80;;;2.60;;
4389;SDS011;2209;48.982;8.406;2023-04-30T14:17:06;2.37;;;2.27;;
4389;SDS011;2209;48.982;8.406;2023-04-30T14:19:28;2.97;;;2.77;;
4389;SDS011;2209;48.982;8.406;2023-04-30T14:21:51;3.10;;;2.80;;
4389;SDS011;2209;48.982;8.406;2023-04-30T14:24:13;2.70;;;2.50;;
4389;SDS011;2209;48.982;8.406;2023-04-30T14:26:35;2.57;;;2.37;;
4389;SDS011;2209;48.982;8.406;2023-04-30T14:28:57;4.27;;;2.50;;
4389;SDS011;2209;48.982;8.406;2023-04-30T14:31:19;2.20;;;2.10;;
4389;SDS011;2209;48.982;8.406;2023-04-30T14:33:43;3.03;;;2.73;;
4389;SDS011;2209;48.982;8.406;2023-04-30T14:36:05;2.33;;;2.20;;
4389;SDS011;2209;48.982;8.406;2023-04-30T14:38:28;6.10;;;3.57;;
4389;SDS011;2209;48.982;8.406;2023-04-30T14:40:50;2.43;;;2.10;;
4389;SDS011;2209;48.982;8.406;2023-04-30T14:43:12;2.97;;;2.57;;
4389;SDS011;2209;48.982;8.406;2023-04-30T14:45:34;3.20;;;2.40;;
4389;SDS011;2209;48.982;8.406;2023-04-30T14:47:57;2.57;;;2.33;;
4389;SDS011;2209;48.982;8.406;2023-04-30T14:50:20;2.37;;;2.17;;